createdAt,value
2018-11-22T00:00:35.465Z,24.10
2018-11-22T00:03:02.365Z,25.33
2018-11-22T00:05:29.591Z,26.60
2018-11-22T00:07:57.520Z,27.77
2018-11-22T00:10:24.808Z,25.53
2018-11-22T00:12:51.939Z,25.80
2018-11-22T00:15:19.722Z,25.57
2018-11-22T00:17:46.876Z,25.73
2018-11-22T00:20:13.732Z,26.37
2018-11-22T00:22:40.626Z,24.60
2018-11-22T00:25:08.932Z,23.57
2018-11-22T00:27:35.822Z,25.53
2018-11-22T00:30:02.719Z,26.43
2018-11-22T00:32:29.856Z,26.20
2018-11-22T00:34:57.465Z,24.67
2018-11-22T00:37:24.324Z,26.27
2018-11-22T00:39:51.216Z,26.50
2018-11-22T00:42:18.085Z,26.33
2018-11-22T00:44:44.962Z,25.60
2018-11-22T00:47:12.270Z,26.77
2018-11-22T00:49:39.152Z,27.00
2018-11-22T00:52:06.037Z,26.23
2018-11-22T00:54:33.313Z,25.33
2018-11-22T00:57:00.195Z,24.73
2018-11-22T00:59:27.205Z,27.13
2018-11-22T01:01:54.137Z,25.00
2018-11-22T01:04:21.009Z,24.30
2018-11-22T01:06:49.343Z,23.53
2018-11-22T01:09:15.265Z,24.70
2018-11-22T01:11:42.224Z,23.33
2018-11-22T01:14:09.357Z,25.97
2018-11-22T01:16:36.267Z,27.10
2018-11-22T01:19:03.760Z,25.33
2018-11-22T01:21:30.943Z,25.03
2018-11-22T01:23:57.915Z,26.53
2018-11-22T01:26:24.813Z,24.93
2018-11-22T01:28:51.945Z,23.63
2018-11-22T01:31:18.832Z,24.97
2018-11-22T01:33:46.143Z,25.60
2018-11-22T01:36:13.003Z,25.87
2018-11-22T01:38:39.918Z,25.50
2018-11-22T01:41:06.764Z,24.23
2018-11-22T01:43:33.635Z,24.93
2018-11-22T01:46:00.516Z,24.17
2018-11-22T01:48:27.423Z,24.13
2018-11-22T01:50:54.278Z,23.87
2018-11-22T01:53:21.195Z,23.97
2018-11-22T01:55:48.043Z,24.13
2018-11-22T01:58:14.918Z,23.70
2018-11-22T02:00:41.807Z,24.27
2018-11-22T02:03:08.689Z,24.20
2018-11-22T02:05:35.568Z,22.70
2018-11-22T02:08:02.446Z,24.33
2018-11-22T02:10:29.308Z,24.70
2018-11-22T02:12:56.158Z,26.10
2018-11-22T02:15:24.867Z,25.93
2018-11-22T02:17:51.730Z,24.87
2018-11-22T02:20:19.976Z,24.70
2018-11-22T02:22:46.888Z,26.77
2018-11-22T02:25:14.770Z,25.30
2018-11-22T02:27:41.832Z,24.40
2018-11-22T02:30:29.508Z,25.37
2018-11-22T02:32:57.819Z,26.87
2018-11-22T02:35:25.177Z,25.13
2018-11-22T02:40:45.579Z,25.10
2018-11-22T02:43:12.472Z,26.53
2018-11-22T02:45:39.402Z,23.30
2018-11-22T02:48:06.264Z,24.03
2018-11-22T02:50:33.205Z,22.90
2018-11-22T02:53:00.059Z,25.47
2018-11-22T02:55:26.931Z,23.57
2018-11-22T02:57:53.810Z,23.13
2018-11-22T03:00:41.919Z,23.63
2018-11-22T03:03:09.659Z,23.60
2018-11-22T03:05:36.537Z,23.77
2018-11-22T03:08:03.434Z,25.40
2018-11-22T03:10:30.716Z,25.67
2018-11-22T03:12:57.807Z,25.10
2018-11-22T03:15:24.842Z,24.50
2018-11-22T03:17:51.805Z,26.10
2018-11-22T03:20:18.665Z,26.23
2018-11-22T03:22:45.531Z,24.87
2018-11-22T03:25:13.961Z,24.60
2018-11-22T03:27:41.915Z,25.70
2018-11-22T03:30:29.194Z,24.93
2018-11-22T03:32:56.101Z,24.03
2018-11-22T03:35:24.459Z,22.93
2018-11-22T03:37:51.394Z,24.20
2018-11-22T03:40:19.792Z,23.53
2018-11-22T03:42:46.636Z,21.20
2018-11-22T03:45:14.321Z,22.50
2018-11-22T03:47:41.552Z,25.10
2018-11-22T03:50:09.924Z,22.20
2018-11-22T03:52:37.226Z,24.23
2018-11-22T03:55:06.113Z,21.87
2018-11-22T03:57:32.958Z,22.03
2018-11-22T03:59:59.869Z,23.10
2018-11-22T04:02:26.660Z,22.70
2018-11-22T04:04:53.542Z,21.10
2018-11-22T04:07:20.405Z,21.00
2018-11-22T04:09:47.279Z,23.80
2018-11-22T04:12:14.125Z,24.97
2018-11-22T04:14:41.009Z,26.70
2018-11-22T04:17:07.846Z,24.97
2018-11-22T04:19:34.766Z,26.00
2018-11-22T04:22:01.749Z,25.13
2018-11-22T04:24:28.629Z,25.57
2018-11-22T04:26:55.472Z,25.40
2018-11-22T04:29:22.381Z,26.60
2018-11-22T04:31:49.227Z,25.77
2018-11-22T04:34:16.478Z,25.07
2018-11-22T04:36:43.347Z,24.93
2018-11-22T04:39:10.664Z,23.97
2018-11-22T04:41:37.924Z,24.87
2018-11-22T04:44:04.835Z,25.07
2018-11-22T04:46:31.738Z,24.30
2018-11-22T04:48:58.574Z,22.87
2018-11-22T04:51:25.472Z,21.67
2018-11-22T04:53:52.339Z,23.90
2018-11-22T04:56:19.646Z,24.57
2018-11-22T04:58:46.517Z,23.80
2018-11-22T05:01:13.409Z,20.50
2018-11-22T05:03:40.273Z,19.47
2018-11-22T05:06:07.179Z,19.10
2018-11-22T05:08:34.025Z,16.57
2018-11-22T05:11:00.878Z,16.33
2018-11-22T05:13:27.794Z,16.47
2018-11-22T05:15:54.656Z,16.60
2018-11-22T05:18:21.519Z,14.87
2018-11-22T05:20:48.414Z,14.93
2018-11-22T05:23:15.284Z,14.27
2018-11-22T05:25:42.145Z,14.73
2018-11-22T05:28:09.364Z,13.70
2018-11-22T05:30:36.282Z,14.50
2018-11-22T05:33:03.591Z,15.40
2018-11-22T05:35:31.368Z,13.67
2018-11-22T05:37:58.228Z,13.90
2018-11-22T05:40:26.354Z,13.67
2018-11-22T05:42:54.326Z,13.37
2018-11-22T05:45:21.581Z,13.33
2018-11-22T05:47:48.437Z,13.33
2018-11-22T05:50:16.828Z,13.70
2018-11-22T05:52:44.467Z,12.73
2018-11-22T05:55:11.833Z,13.40
2018-11-22T05:57:38.779Z,12.27
2018-11-22T06:00:27.022Z,12.90
2018-11-22T06:02:54.397Z,12.30
2018-11-22T06:05:23.054Z,13.20
2018-11-22T06:07:50.096Z,12.73
2018-11-22T06:10:18.622Z,14.73
2018-11-22T06:12:45.926Z,13.33
2018-11-22T06:15:13.645Z,13.10
2018-11-22T06:17:41.276Z,14.47
2018-11-22T06:20:10.863Z,13.77
2018-11-22T06:22:37.828Z,15.07
2018-11-22T06:25:06.991Z,14.60
2018-11-22T06:27:33.839Z,13.57
2018-11-22T06:30:01.050Z,13.83
2018-11-22T06:32:27.931Z,14.67
2018-11-22T06:34:55.259Z,14.63
2018-11-22T06:37:22.142Z,14.97
2018-11-22T06:39:49.043Z,20.97
2018-11-22T06:42:15.933Z,14.27
2018-11-22T06:44:42.822Z,13.90
2018-11-22T06:47:10.108Z,14.80
2018-11-22T06:49:37.013Z,13.63
2018-11-22T06:52:04.281Z,14.23
2018-11-22T06:54:31.201Z,16.50
2018-11-22T06:56:58.075Z,15.83
2018-11-22T06:59:37.716Z,14.97
2018-11-22T07:02:04.611Z,14.67
2018-11-22T07:04:31.499Z,16.43
2018-11-22T07:06:58.378Z,15.80
2018-11-22T07:09:25.227Z,13.70
2018-11-22T07:11:52.139Z,15.33
2018-11-22T07:14:19.023Z,16.07
2018-11-22T07:16:45.903Z,15.33
2018-11-22T07:19:12.753Z,18.50
2018-11-22T07:21:39.656Z,15.93
2018-11-22T07:24:06.495Z,15.40
2018-11-22T07:26:33.376Z,17.07
2018-11-22T07:29:00.254Z,15.57
2018-11-22T07:31:27.134Z,15.67
2018-11-22T07:33:53.978Z,16.00
2018-11-22T07:36:20.931Z,16.80
2018-11-22T07:38:48.126Z,18.30
2018-11-22T07:41:15.033Z,17.67
2018-11-22T07:43:41.976Z,15.97
2018-11-22T07:46:09.187Z,15.80
2018-11-22T07:48:36.047Z,17.20
2018-11-22T07:51:02.957Z,17.37
2018-11-22T07:53:29.855Z,18.30
2018-11-22T07:55:56.775Z,16.50
2018-11-22T07:58:23.998Z,17.07
2018-11-22T08:00:50.836Z,17.20
2018-11-22T08:03:17.745Z,18.60
2018-11-22T08:05:44.665Z,17.17
2018-11-22T08:08:11.538Z,20.83
2018-11-22T08:10:38.473Z,17.10
2018-11-22T08:13:05.426Z,19.10
2018-11-22T08:15:33.777Z,17.67
2018-11-22T08:18:00.659Z,18.83
2018-11-22T08:20:27.704Z,18.07
2018-11-22T08:22:55.271Z,17.80
2018-11-22T08:25:23.245Z,17.03
2018-11-22T08:27:50.926Z,17.17
2018-11-22T08:30:18.404Z,17.67
2018-11-22T08:32:45.297Z,17.70
2018-11-22T08:35:12.692Z,17.93
2018-11-22T08:37:39.584Z,17.17
2018-11-22T08:40:12.585Z,18.60
2018-11-22T08:42:39.504Z,18.80
2018-11-22T08:45:07.012Z,19.40
2018-11-22T08:47:33.865Z,18.80
2018-11-22T08:50:00.770Z,17.37
2018-11-22T08:52:27.652Z,18.77
2018-11-22T08:54:54.616Z,16.90
2018-11-22T08:57:21.508Z,18.00
2018-11-22T12:17:10.758Z,9.73
2018-11-22T12:19:38.340Z,10.50
2018-11-22T12:22:05.758Z,10.20
2018-11-22T12:24:33.230Z,11.13
2018-11-22T12:27:00.858Z,11.10
2018-11-22T12:29:28.144Z,11.63
2018-11-22T12:31:57.287Z,8.50
2018-11-22T12:34:29.265Z,8.97
2018-11-22T12:37:02.265Z,8.30
2018-11-22T12:39:29.727Z,10.50
2018-11-22T12:41:57.079Z,10.27
2018-11-22T12:44:24.505Z,10.03
2018-11-22T12:46:51.882Z,10.53
2018-11-22T12:49:19.410Z,9.67
2018-11-22T12:51:46.799Z,9.27
2018-11-22T12:54:14.259Z,9.07
2018-11-22T12:56:41.657Z,9.97
2018-11-22T12:59:09.100Z,10.97
2018-11-22T13:01:36.708Z,10.97
2018-11-22T13:04:04.407Z,9.77
2018-11-22T13:06:31.956Z,9.70
2018-11-22T13:08:59.543Z,9.70
2018-11-22T13:11:27.058Z,9.33
2018-11-22T13:13:54.513Z,9.07
2018-11-22T13:16:21.931Z,10.13
2018-11-22T13:18:49.365Z,9.53
2018-11-22T13:21:16.954Z,9.10
2018-11-22T13:23:44.527Z,9.03
2018-11-22T13:26:11.912Z,9.70
2018-11-22T13:28:39.416Z,10.17
2018-11-22T13:31:06.911Z,9.67
2018-11-22T13:33:34.413Z,9.70
2018-11-22T13:36:01.861Z,9.20
2018-11-22T13:38:29.323Z,9.73
2018-11-22T13:40:56.689Z,9.57
2018-11-22T13:43:24.143Z,8.93
2018-11-22T13:45:52.054Z,9.67
2018-11-22T13:48:19.499Z,10.00
2018-11-22T13:50:47.091Z,9.20
2018-11-22T13:53:14.767Z,10.03
2018-11-22T13:55:41.980Z,9.80
2018-11-22T13:58:09.431Z,11.43
2018-11-22T14:00:36.929Z,9.47
2018-11-22T14:03:05.846Z,10.87
2018-11-22T14:05:33.408Z,10.70
2018-11-22T14:08:00.868Z,9.10
2018-11-22T14:10:28.316Z,9.43
2018-11-22T14:12:55.771Z,10.20
2018-11-22T14:15:24.790Z,10.67
2018-11-22T14:17:53.754Z,10.13
2018-11-22T14:20:24.617Z,10.03
2018-11-22T14:22:52.247Z,10.10
2018-11-22T14:25:19.824Z,9.90
2018-11-22T14:27:48.306Z,9.97
2018-11-22T14:30:17.147Z,10.47
2018-11-22T14:32:45.365Z,9.07
2018-11-22T14:35:14.164Z,9.83
2018-11-22T14:37:42.155Z,10.77
2018-11-22T14:40:15.188Z,11.83
2018-11-22T14:42:43.232Z,11.67
2018-11-22T14:45:11.994Z,10.97
2018-11-22T14:47:40.056Z,10.67
2018-11-22T14:50:11.535Z,12.57
2018-11-22T14:52:39.831Z,11.80
2018-11-22T14:55:07.926Z,14.40
2018-11-22T14:57:35.616Z,16.20
2018-11-22T15:00:03.703Z,16.53
2018-11-22T15:02:31.127Z,16.40
2018-11-22T15:04:58.527Z,16.07
2018-11-22T15:07:28.804Z,17.07
2018-11-22T15:09:53.411Z,17.13
2018-11-22T15:12:20.847Z,15.53
2018-11-22T15:14:48.318Z,15.27
2018-11-22T15:17:15.721Z,16.67
2018-11-22T15:19:43.163Z,15.53
2018-11-22T15:22:10.574Z,16.57
2018-11-22T15:24:38.171Z,15.70
2018-11-22T15:27:05.631Z,15.20
2018-11-22T15:29:33.011Z,15.80
2018-11-22T15:32:00.533Z,15.57
2018-11-22T15:34:28.030Z,15.17
2018-11-22T15:36:55.443Z,17.47
2018-11-22T15:39:22.794Z,16.73
2018-11-22T15:41:50.291Z,15.80
2018-11-22T15:44:17.723Z,16.20
2018-11-22T15:46:45.223Z,14.87
2018-11-22T15:49:12.620Z,17.40
2018-11-22T15:51:40.146Z,18.10
2018-11-22T15:54:07.518Z,17.90
2018-11-22T15:56:35.138Z,17.77
2018-11-22T15:59:02.518Z,16.80
2018-11-22T16:01:30.158Z,16.57
2018-11-22T16:03:57.608Z,15.43
2018-11-22T16:06:25.043Z,15.57
2018-11-22T16:08:52.490Z,17.00
2018-11-22T16:11:19.907Z,16.93
2018-11-22T16:13:47.515Z,17.80
2018-11-22T16:16:14.938Z,16.90
2018-11-22T16:18:42.640Z,17.73
2018-11-22T16:21:10.051Z,16.90
2018-11-22T16:23:37.533Z,18.23
2018-11-22T16:26:05.070Z,18.33
2018-11-22T16:28:32.521Z,17.37
2018-11-22T16:30:59.932Z,17.77
2018-11-22T16:33:27.349Z,16.97
2018-11-22T16:35:54.775Z,16.83
2018-11-22T16:38:22.155Z,17.20
2018-11-22T16:40:49.669Z,17.77
2018-11-22T16:43:17.100Z,17.40
2018-11-22T16:45:44.547Z,18.00
2018-11-22T16:48:13.052Z,17.23
2018-11-22T16:50:41.207Z,18.00
2018-11-22T16:53:08.623Z,19.00
2018-11-22T16:55:36.086Z,17.50
2018-11-22T16:58:04.000Z,20.80
2018-11-22T17:00:36.588Z,19.00
2018-11-22T17:03:07.805Z,15.23
2018-11-22T17:05:35.696Z,16.67
2018-11-22T17:08:04.090Z,17.93
2018-11-22T17:10:31.998Z,16.27
2018-11-22T17:13:00.498Z,15.30
2018-11-22T17:15:30.335Z,16.80
2018-11-22T17:17:58.245Z,14.73
2018-11-22T17:20:26.571Z,16.03
2018-11-22T17:22:54.495Z,16.63
2018-11-22T17:25:24.461Z,14.17
2018-11-22T17:27:53.566Z,16.50
2018-11-22T17:30:23.556Z,15.50
2018-11-22T17:32:51.128Z,16.03
2018-11-22T17:35:20.230Z,16.10
2018-11-22T17:37:47.979Z,15.40
2018-11-22T17:40:19.960Z,16.47
2018-11-22T17:42:47.409Z,16.03
2018-11-22T17:45:20.613Z,15.57
2018-11-22T17:47:48.199Z,16.53
2018-11-22T17:50:15.633Z,16.60
2018-11-22T17:52:43.585Z,16.47
2018-11-22T17:55:15.572Z,16.83
2018-11-22T17:57:43.218Z,15.03
2018-11-22T18:00:20.550Z,17.30
2018-11-22T18:02:49.284Z,16.23
2018-11-22T18:05:17.075Z,17.93
2018-11-22T18:07:44.532Z,15.33
2018-11-22T18:10:14.341Z,16.20
2018-11-22T18:12:42.986Z,16.33
2018-11-22T18:15:12.256Z,17.07
2018-11-22T18:17:39.698Z,16.00
2018-11-22T18:20:10.282Z,17.30
2018-11-22T18:22:37.982Z,17.47
2018-11-22T18:25:07.674Z,15.77
2018-11-22T18:27:35.427Z,18.73
2018-11-22T18:30:03.343Z,16.73
2018-11-22T18:32:30.809Z,16.57
2018-11-22T18:34:58.239Z,16.10
2018-11-22T18:37:25.731Z,17.83
2018-11-22T18:39:53.151Z,16.83
2018-11-22T18:42:20.682Z,17.40
2018-11-22T18:44:48.198Z,18.43
2018-11-22T18:47:16.111Z,16.63
2018-11-22T18:49:43.783Z,16.20
2018-11-22T18:52:11.399Z,16.60
2018-11-22T18:54:39.112Z,17.70
2018-11-22T18:57:06.583Z,17.33
2018-11-22T18:59:34.049Z,18.93
2018-11-22T19:02:01.479Z,16.93
2018-11-22T19:04:28.972Z,18.30
2018-11-22T19:06:56.533Z,18.10
2018-11-22T19:09:23.970Z,18.40
2018-11-22T19:11:51.432Z,16.73
2018-11-22T19:14:19.012Z,18.43
2018-11-22T19:16:46.521Z,17.40
2018-11-22T19:19:14.086Z,19.30
2018-11-22T19:21:41.566Z,19.13
2018-11-22T19:24:08.980Z,18.57
2018-11-22T19:26:36.458Z,19.17
2018-11-22T19:29:03.944Z,17.30
2018-11-22T19:31:31.420Z,16.67
2018-11-22T19:33:58.798Z,16.83
2018-11-22T19:36:26.834Z,17.27
2018-11-22T19:38:54.264Z,18.63
2018-11-22T19:41:21.797Z,17.10
2018-11-22T19:43:49.300Z,17.10
2018-11-22T19:46:16.768Z,16.80
2018-11-22T19:48:44.225Z,16.93
2018-11-22T19:51:11.740Z,18.73
2018-11-22T19:53:39.141Z,18.80
2018-11-22T19:56:06.580Z,20.60
2018-11-22T19:58:34.010Z,16.30
2018-11-22T20:01:07.533Z,17.17
2018-11-22T20:03:28.997Z,18.20
2018-11-22T20:05:56.498Z,17.60
2018-11-22T20:08:23.920Z,17.30
2018-11-22T20:10:51.305Z,18.77
2018-11-22T20:13:18.758Z,19.00
2018-11-22T20:15:46.337Z,17.87
2018-11-22T20:18:13.800Z,19.03
2018-11-22T20:20:41.403Z,17.80
2018-11-22T20:23:08.914Z,17.30
2018-11-22T20:25:36.369Z,19.43
2018-11-22T20:28:04.240Z,17.03
2018-11-22T20:30:32.942Z,18.27
2018-11-22T20:33:00.762Z,17.60
2018-11-22T20:35:29.262Z,16.80
2018-11-22T20:37:56.741Z,18.57
2018-11-22T20:40:25.396Z,17.10
2018-11-22T20:42:52.849Z,18.33
2018-11-22T20:45:21.640Z,16.60
2018-11-22T20:47:50.856Z,17.83
2018-11-22T20:50:19.775Z,19.17
2018-11-22T20:52:47.205Z,19.53
2018-11-22T20:55:21.906Z,17.90
2018-11-22T20:57:51.025Z,18.50
2018-11-22T21:00:19.791Z,18.30
2018-11-22T21:02:47.236Z,18.37
2018-11-22T21:05:15.637Z,20.30
2018-11-22T21:07:43.829Z,17.50
2018-11-22T21:10:12.823Z,18.80
2018-11-22T21:12:40.883Z,18.40
2018-11-22T21:15:12.452Z,21.20
2018-11-22T21:17:40.648Z,18.20
2018-11-22T21:20:09.490Z,17.90
2018-11-22T21:22:37.162Z,18.83
2018-11-22T21:25:06.562Z,17.70
2018-11-22T21:27:34.008Z,17.17
2018-11-22T21:30:01.786Z,19.27
2018-11-22T21:32:29.224Z,17.83
2018-11-22T21:34:56.624Z,18.60
2018-11-22T21:37:24.158Z,19.40
2018-11-22T21:39:51.768Z,19.80
2018-11-22T21:42:19.255Z,18.40
2018-11-22T21:44:46.688Z,19.40
2018-11-22T21:47:14.158Z,18.27
2018-11-22T21:49:41.554Z,18.93
2018-11-22T21:52:09.112Z,18.47
2018-11-22T21:54:36.653Z,19.23
2018-11-22T21:57:04.596Z,19.10
2018-11-22T21:59:32.201Z,18.30
2018-11-22T22:01:59.862Z,20.67
2018-11-22T22:04:27.306Z,19.60
2018-11-22T22:06:54.776Z,19.90
2018-11-22T22:09:22.229Z,18.60
2018-11-22T22:11:49.789Z,19.23
2018-11-22T22:14:17.212Z,19.80
2018-11-22T22:16:44.753Z,20.27
2018-11-22T22:19:12.193Z,19.73
2018-11-22T22:21:39.624Z,18.93
2018-11-22T22:24:07.076Z,18.77
2018-11-22T22:26:34.792Z,18.70
2018-11-22T22:29:02.238Z,17.93
2018-11-22T22:31:29.760Z,19.40
2018-11-22T22:33:57.150Z,19.37
2018-11-22T22:36:24.664Z,19.43
2018-11-22T22:38:52.098Z,18.80
2018-11-22T22:41:19.562Z,18.87
2018-11-22T22:43:46.961Z,17.87
2018-11-22T22:46:14.412Z,17.60
2018-11-22T22:48:41.805Z,18.23
2018-11-22T22:51:09.232Z,17.23
2018-11-22T22:53:36.758Z,18.70
2018-11-22T22:56:04.620Z,17.30
2018-11-22T22:58:32.058Z,19.07
2018-11-22T23:01:02.234Z,18.40
2018-11-22T23:03:30.361Z,18.10
2018-11-22T23:05:57.830Z,18.30
2018-11-22T23:08:25.475Z,18.73
2018-11-22T23:10:52.886Z,20.73
2018-11-22T23:13:20.305Z,18.70
2018-11-22T23:15:47.810Z,18.70
2018-11-22T23:18:15.340Z,18.97
2018-11-22T23:20:42.858Z,18.23
2018-11-22T23:23:10.372Z,18.47
2018-11-22T23:25:37.940Z,18.07
2018-11-22T23:28:05.588Z,18.70
2018-11-22T23:30:34.227Z,18.00
2018-11-22T23:33:03.174Z,19.60
2018-11-22T23:35:30.625Z,19.87
2018-11-22T23:37:58.158Z,18.37
2018-11-22T23:40:26.951Z,18.53
2018-11-22T23:42:54.386Z,17.13
2018-11-22T23:45:23.118Z,18.40
2018-11-22T23:47:50.764Z,17.53
2018-11-22T23:50:19.650Z,18.73
2018-11-22T23:52:48.377Z,17.73
2018-11-22T23:55:15.995Z,20.20
2018-11-22T23:57:43.669Z,17.67
